sensor_id;sensor_type;location;lat;lon;timestamp;P1;durP1;ratioP1;P2;durP2;ratioP2
14121;SDS011;7139;48.114;11.442;2023-09-18T00:00:01;5.93;;;4.90;;
14121;SDS011;7139;48.114;11.442;2023-09-18T00:02:30;5.47;;;5.07;;
14121;SDS011;7139;48.114;11.442;2023-09-18T00:04:56;5.40;;;4.90;;
14121;SDS011;7139;48.114;11.442;2023-09-18T00:07:23;5.50;;;5.00;;
14121;SDS011;7139;48.114;11.442;2023-09-18T00:09:51;5.73;;;5.17;;
14121;SDS011;7139;48.114;11.442;2023-09-18T00:12:18;5.40;;;4.90;;
14121;SDS011;7139;48.114;11.442;2023-09-18T00:14:47;5.40;;;4.90;;
14121;SDS011;7139;48.114;11.442;2023-09-18T00:17:14;5.20;;;4.50;;
14121;SDS011;7139;48.114;11.442;2023-09-18T00:19:41;6.30;;;5.00;;
14121;SDS011;7139;48.114;11.442;2023-09-18T00:22:08;5.03;;;4.60;;
14121;SDS011;7139;48.114;11.442;2023-09-18T00:24:35;4.93;;;4.53;;
14121;SDS011;7139;48.114;11.442;2023-09-18T00:27:04;5.13;;;4.73;;
14121;SDS011;7139;48.114;11.442;2023-09-18T00:29:30;5.27;;;4.77;;
14121;SDS011;7139;48.114;11.442;2023-09-18T00:31:57;5.00;;;4.20;;
14121;SDS011;7139;48.114;11.442;2023-09-18T00:34:24;4.60;;;4.20;;
14121;SDS011;7139;48.114;11.442;2023-09-18T00:36:50;5.20;;;4.80;;
14121;SDS011;7139;48.114;11.442;2023-09-18T00:39:17;5.00;;;4.40;;
14121;SDS011;7139;48.114;11.442;2023-09-18T00:41:45;4.70;;;4.20;;
14121;SDS011;7139;48.114;11.442;2023-09-18T00:44:15;4.70;;;4.40;;
14121;SDS011;7139;48.114;11.442;2023-09-18T00:46:42;8.50;;;4.17;;
14121;SDS011;7139;48.114;11.442;2023-09-18T00:49:09;5.90;;;4.73;;
14121;SDS011;7139;48.114;11.442;2023-09-18T00:51:37;4.40;;;4.00;;
14121;SDS011;7139;48.114;11.442;2023-09-18T00:54:04;4.90;;;4.47;;
14121;SDS011;7139;48.114;11.442;2023-09-18T00:56:32;4.73;;;4.20;;
14121;SDS011;7139;48.114;11.442;2023-09-18T00:58:59;4.80;;;4.30;;
14121;SDS011;7139;48.114;11.442;2023-09-18T01:01:30;4.90;;;4.40;;
14121;SDS011;7139;48.114;11.442;2023-09-18T01:03:58;4.60;;;4.20;;
14121;SDS011;7139;48.114;11.442;2023-09-18T01:06:26;5.37;;;4.80;;
14121;SDS011;7139;48.114;11.442;2023-09-18T01:08:55;5.07;;;4.57;;
14121;SDS011;7139;48.114;11.442;2023-09-18T01:11:26;4.73;;;4.27;;
14121;SDS011;7139;48.114;11.442;2023-09-18T01:14:00;4.90;;;4.43;;
14121;SDS011;7139;48.114;11.442;2023-09-18T01:16:41;6.30;;;4.03;;
14121;SDS011;7139;48.114;11.442;2023-09-18T01:19:15;4.80;;;3.70;;
14121;SDS011;7139;48.114;11.442;2023-09-18T01:21:44;4.40;;;4.00;;
14121;SDS011;7139;48.114;11.442;2023-09-18T01:24:12;4.87;;;3.97;;
14121;SDS011;7139;48.114;11.442;2023-09-18T01:26:39;4.57;;;4.00;;
14121;SDS011;7139;48.114;11.442;2023-09-18T01:29:06;4.50;;;4.10;;
14121;SDS011;7139;48.114;11.442;2023-09-18T01:31:33;4.40;;;4.00;;
14121;SDS011;7139;48.114;11.442;2023-09-18T01:33:59;5.23;;;3.90;;
14121;SDS011;7139;48.114;11.442;2023-09-18T01:36:28;5.27;;;4.40;;
14121;SDS011;7139;48.114;11.442;2023-09-18T01:38:55;4.63;;;3.93;;
14121;SDS011;7139;48.114;11.442;2023-09-18T01:41:23;7.47;;;3.97;;
14121;SDS011;7139;48.114;11.442;2023-09-18T01:43:50;4.90;;;4.07;;
14121;SDS011;7139;48.114;11.442;2023-09-18T01:46:17;4.53;;;4.13;;
14121;SDS011;7139;48.114;11.442;2023-09-18T01:48:45;5.80;;;4.10;;
14121;SDS011;7139;48.114;11.442;2023-09-18T01:51:13;4.13;;;3.83;;
14121;SDS011;7139;48.114;11.442;2023-09-18T01:53:40;4.47;;;3.90;;
14121;SDS011;7139;48.114;11.442;2023-09-18T01:56:06;6.93;;;4.43;;
14121;SDS011;7139;48.114;11.442;2023-09-18T01:58:34;4.40;;;3.90;;
14121;SDS011;7139;48.114;11.442;2023-09-18T02:01:01;6.03;;;4.10;;
14121;SDS011;7139;48.114;11.442;2023-09-18T02:03:29;4.47;;;4.03;;
14121;SDS011;7139;48.114;11.442;2023-09-18T02:05:56;5.70;;;3.87;;
14121;SDS011;7139;48.114;11.442;2023-09-18T02:08:23;4.23;;;3.90;;
14121;SDS011;7139;48.114;11.442;2023-09-18T02:10:49;4.20;;;3.90;;
14121;SDS011;7139;48.114;11.442;2023-09-18T02:13:16;4.47;;;4.07;;
14121;SDS011;7139;48.114;11.442;2023-09-18T02:15:45;4.40;;;4.10;;
14121;SDS011;7139;48.114;11.442;2023-09-18T02:18:12;4.47;;;4.07;;
14121;SDS011;7139;48.114;11.442;2023-09-18T02:20:40;5.77;;;4.40;;
14121;SDS011;7139;48.114;11.442;2023-09-18T02:23:09;5.00;;;4.00;;
14121;SDS011;7139;48.114;11.442;2023-09-18T02:25:36;4.60;;;4.20;;
14121;SDS011;7139;48.114;11.442;2023-09-18T02:28:03;4.83;;;4.10;;
14121;SDS011;7139;48.114;11.442;2023-09-18T02:30:30;4.60;;;4.00;;
14121;SDS011;7139;48.114;11.442;2023-09-18T02:32:59;4.73;;;4.33;;
14121;SDS011;7139;48.114;11.442;2023-09-18T02:35:28;4.53;;;4.00;;
14121;SDS011;7139;48.114;11.442;2023-09-18T02:37:55;4.83;;;4.37;;
14121;SDS011;7139;48.114;11.442;2023-09-18T02:40:21;4.67;;;3.87;;
14121;SDS011;7139;48.114;11.442;2023-09-18T02:42:48;7.37;;;4.33;;
14121;SDS011;7139;48.114;11.442;2023-09-18T02:45:15;5.33;;;4.00;;
14121;SDS011;7139;48.114;11.442;2023-09-18T02:47:42;5.00;;;4.10;;
14121;SDS011;7139;48.114;11.442;2023-09-18T02:50:10;4.93;;;4.43;;
14121;SDS011;7139;48.114;11.442;2023-09-18T02:52:37;5.10;;;4.20;;
14121;SDS011;7139;48.114;11.442;2023-09-18T02:55:04;7.87;;;4.20;;
14121;SDS011;7139;48.114;11.442;2023-09-18T02:57:31;4.60;;;4.20;;
14121;SDS011;7139;48.114;11.442;2023-09-18T02:59:57;5.27;;;4.17;;
14121;SDS011;7139;48.114;11.442;2023-09-18T03:02:24;4.60;;;4.17;;
14121;SDS011;7139;48.114;11.442;2023-09-18T03:04:51;5.20;;;4.60;;
14121;SDS011;7139;48.114;11.442;2023-09-18T03:07:19;4.93;;;4.13;;
14121;SDS011;7139;48.114;11.442;2023-09-18T03:09:46;5.67;;;4.27;;
14121;SDS011;7139;48.114;11.442;2023-09-18T03:12:12;4.70;;;4.20;;
14121;SDS011;7139;48.114;11.442;2023-09-18T03:14:39;5.73;;;3.87;;
14121;SDS011;7139;48.114;11.442;2023-09-18T03:17:06;5.17;;;3.87;;
14121;SDS011;7139;48.114;11.442;2023-09-18T03:19:33;5.53;;;4.20;;
14121;SDS011;7139;48.114;11.442;2023-09-18T03:22:00;4.50;;;4.10;;
14121;SDS011;7139;48.114;11.442;2023-09-18T03:24:28;5.63;;;4.50;;
14121;SDS011;7139;48.114;11.442;2023-09-18T03:26:55;4.87;;;4.20;;
14121;SDS011;7139;48.114;11.442;2023-09-18T03:29:21;4.87;;;4.47;;
14121;SDS011;7139;48.114;11.442;2023-09-18T03:31:48;6.03;;;4.37;;
14121;SDS011;7139;48.114;11.442;2023-09-18T03:34:15;5.27;;;4.50;;
14121;SDS011;7139;48.114;11.442;2023-09-18T03:36:42;6.27;;;4.57;;
14121;SDS011;7139;48.114;11.442;2023-09-18T03:39:08;4.70;;;4.20;;
14121;SDS011;7139;48.114;11.442;2023-09-18T03:41:37;4.73;;;4.23;;
14121;SDS011;7139;48.114;11.442;2023-09-18T03:44:04;5.13;;;4.60;;
14121;SDS011;7139;48.114;11.442;2023-09-18T03:46:31;5.10;;;4.60;;
14121;SDS011;7139;48.114;11.442;2023-09-18T03:48:57;5.60;;;4.67;;
14121;SDS011;7139;48.114;11.442;2023-09-18T03:51:24;5.03;;;4.50;;
14121;SDS011;7139;48.114;11.442;2023-09-18T03:53:51;5.60;;;4.53;;
14121;SDS011;7139;48.114;11.442;2023-09-18T03:56:17;4.60;;;4.20;;
14121;SDS011;7139;48.114;11.442;2023-09-18T03:58:45;4.63;;;4.23;;
14121;SDS011;7139;48.114;11.442;2023-09-18T04:01:14;4.60;;;4.20;;
14121;SDS011;7139;48.114;11.442;2023-09-18T04:03:41;4.90;;;4.40;;
14121;SDS011;7139;48.114;11.442;2023-09-18T04:06:08;4.90;;;4.30;;
14121;SDS011;7139;48.114;11.442;2023-09-18T04:08:34;4.70;;;4.13;;
14121;SDS011;7139;48.114;11.442;2023-09-18T04:11:01;6.00;;;4.30;;
14121;SDS011;7139;48.114;11.442;2023-09-18T04:13:29;5.83;;;4.00;;
14121;SDS011;7139;48.114;11.442;2023-09-18T04:15:57;4.07;;;3.67;;
14121;SDS011;7139;48.114;11.442;2023-09-18T04:18:25;7.03;;;4.00;;
14121;SDS011;7139;48.114;11.442;2023-09-18T04:24:15;5.47;;;4.00;;
14121;SDS011;7139;48.114;11.442;2023-09-18T04:30:04;5.60;;;4.03;;
14121;SDS011;7139;48.114;11.442;2023-09-18T04:32:35;5.00;;;4.47;;
14121;SDS011;7139;48.114;11.442;2023-09-18T04:35:02;5.33;;;4.27;;
14121;SDS011;7139;48.114;11.442;2023-09-18T04:44:20;5.25;;;4.25;;
14121;SDS011;7139;48.114;11.442;2023-09-18T04:46:46;4.17;;;3.77;;
14121;SDS011;7139;48.114;11.442;2023-09-18T04:49:15;4.20;;;3.70;;
14121;SDS011;7139;48.114;11.442;2023-09-18T04:55:02;5.30;;;3.47;;
14121;SDS011;7139;48.114;11.442;2023-09-18T04:57:31;4.97;;;3.70;;
14121;SDS011;7139;48.114;11.442;2023-09-18T04:59:57;5.03;;;3.40;;
14121;SDS011;7139;48.114;11.442;2023-09-18T05:02:24;5.50;;;3.60;;
14121;SDS011;7139;48.114;11.442;2023-09-18T05:04:52;5.83;;;3.90;;
14121;SDS011;7139;48.114;11.442;2023-09-18T05:07:21;5.30;;;3.50;;
14121;SDS011;7139;48.114;11.442;2023-09-18T05:09:57;5.60;;;3.77;;
14121;SDS011;7139;48.114;11.442;2023-09-18T05:12:24;4.20;;;3.80;;
14121;SDS011;7139;48.114;11.442;2023-09-18T05:14:51;6.77;;;4.27;;
14121;SDS011;7139;48.114;11.442;2023-09-18T05:17:20;4.70;;;4.20;;
14121;SDS011;7139;48.114;11.442;2023-09-18T05:20:13;5.30;;;4.00;;
14121;SDS011;7139;48.114;11.442;2023-09-18T05:22:42;4.33;;;3.87;;
14121;SDS011;7139;48.114;11.442;2023-09-18T05:25:11;7.50;;;4.17;;
14121;SDS011;7139;48.114;11.442;2023-09-18T05:27:39;6.67;;;4.30;;
14121;SDS011;7139;48.114;11.442;2023-09-18T05:30:10;6.67;;;4.10;;
14121;SDS011;7139;48.114;11.442;2023-09-18T05:32:44;8.97;;;4.27;;
14121;SDS011;7139;48.114;11.442;2023-09-18T05:38:40;5.50;;;4.03;;
14121;SDS011;7139;48.114;11.442;2023-09-18T05:41:08;6.83;;;4.57;;
14121;SDS011;7139;48.114;11.442;2023-09-18T05:43:35;8.17;;;3.97;;
14121;SDS011;7139;48.114;11.442;2023-09-18T05:46:01;4.97;;;3.87;;
14121;SDS011;7139;48.114;11.442;2023-09-18T05:48:28;7.40;;;4.20;;
14121;SDS011;7139;48.114;11.442;2023-09-18T05:50:56;7.23;;;4.10;;
14121;SDS011;7139;48.114;11.442;2023-09-18T05:56:46;7.63;;;4.20;;
14121;SDS011;7139;48.114;11.442;2023-09-18T05:59:13;7.60;;;4.57;;
14121;SDS011;7139;48.114;11.442;2023-09-18T06:01:41;7.80;;;5.00;;
14121;SDS011;7139;48.114;11.442;2023-09-18T06:04:08;5.53;;;4.33;;
14121;SDS011;7139;48.114;11.442;2023-09-18T06:06:35;6.27;;;4.67;;
14121;SDS011;7139;48.114;11.442;2023-09-18T06:09:02;7.27;;;4.53;;
14121;SDS011;7139;48.114;11.442;2023-09-18T06:11:29;5.77;;;4.50;;
14121;SDS011;7139;48.114;11.442;2023-09-18T06:13:57;6.67;;;4.30;;
14121;SDS011;7139;48.114;11.442;2023-09-18T06:16:24;7.70;;;3.90;;
14121;SDS011;7139;48.114;11.442;2023-09-18T06:18:50;4.93;;;4.07;;
14121;SDS011;7139;48.114;11.442;2023-09-18T06:21:17;4.83;;;4.30;;
14121;SDS011;7139;48.114;11.442;2023-09-18T06:23:44;5.43;;;4.23;;
14121;SDS011;7139;48.114;11.442;2023-09-18T06:26:11;5.33;;;3.97;;
14121;SDS011;7139;48.114;11.442;2023-09-18T06:28:38;7.33;;;4.20;;
14121;SDS011;7139;48.114;11.442;2023-09-18T06:31:07;6.83;;;4.30;;
14121;SDS011;7139;48.114;11.442;2023-09-18T06:33:33;5.13;;;4.00;;
14121;SDS011;7139;48.114;11.442;2023-09-18T06:36:00;4.93;;;4.10;;
14121;SDS011;7139;48.114;11.442;2023-09-18T06:38:28;6.30;;;4.70;;
14121;SDS011;7139;48.114;11.442;2023-09-18T06:40:55;6.53;;;4.47;;
14121;SDS011;7139;48.114;11.442;2023-09-18T06:43:21;4.40;;;4.00;;
14121;SDS011;7139;48.114;11.442;2023-09-18T06:45:49;5.50;;;4.33;;
14121;SDS011;7139;48.114;11.442;2023-09-18T06:48:17;4.83;;;4.40;;
14121;SDS011;7139;48.114;11.442;2023-09-18T06:50:59;5.77;;;4.60;;
14121;SDS011;7139;48.114;11.442;2023-09-18T06:53:26;7.37;;;4.47;;
14121;SDS011;7139;48.114;11.442;2023-09-18T06:59:14;4.77;;;4.37;;
14121;SDS011;7139;48.114;11.442;2023-09-18T07:01:41;6.07;;;4.60;;
14121;SDS011;7139;48.114;11.442;2023-09-18T07:04:09;6.37;;;4.37;;
14121;SDS011;7139;48.114;11.442;2023-09-18T07:06:36;6.40;;;4.33;;
14121;SDS011;7139;48.114;11.442;2023-09-18T07:09:03;4.77;;;4.30;;
14121;SDS011;7139;48.114;11.442;2023-09-18T07:11:32;6.70;;;4.60;;
14121;SDS011;7139;48.114;11.442;2023-09-18T07:13:58;6.53;;;4.50;;
14121;SDS011;7139;48.114;11.442;2023-09-18T07:16:26;6.73;;;4.40;;
14121;SDS011;7139;48.114;11.442;2023-09-18T07:18:53;7.30;;;3.93;;
14121;SDS011;7139;48.114;11.442;2023-09-18T07:21:21;8.60;;;4.10;;
14121;SDS011;7139;48.114;11.442;2023-09-18T07:23:47;7.70;;;4.23;;
14121;SDS011;7139;48.114;11.442;2023-09-18T07:26:15;7.63;;;4.43;;
14121;SDS011;7139;48.114;11.442;2023-09-18T07:28:42;9.90;;;4.27;;
14121;SDS011;7139;48.114;11.442;2023-09-18T07:31:09;5.50;;;4.00;;
14121;SDS011;7139;48.114;11.442;2023-09-18T07:33:39;6.40;;;3.70;;
14121;SDS011;7139;48.114;11.442;2023-09-18T07:36:06;5.97;;;3.80;;
14121;SDS011;7139;48.114;11.442;2023-09-18T07:38:36;5.43;;;3.63;;
14121;SDS011;7139;48.114;11.442;2023-09-18T07:41:08;5.33;;;3.80;;
14121;SDS011;7139;48.114;11.442;2023-09-18T07:43:34;7.00;;;4.30;;
14121;SDS011;7139;48.114;11.442;2023-09-18T07:46:01;7.83;;;4.33;;
14121;SDS011;7139;48.114;11.442;2023-09-18T07:48:28;8.80;;;4.50;;
14121;SDS011;7139;48.114;11.442;2023-09-18T07:50:55;6.53;;;4.03;;
14121;SDS011;7139;48.114;11.442;2023-09-18T07:53:21;6.70;;;4.10;;
14121;SDS011;7139;48.114;11.442;2023-09-18T07:55:54;5.00;;;3.87;;
14121;SDS011;7139;48.114;11.442;2023-09-18T07:58:22;6.33;;;3.83;;
14121;SDS011;7139;48.114;11.442;2023-09-18T08:00:51;4.50;;;4.10;;
14121;SDS011;7139;48.114;11.442;2023-09-18T08:03:19;6.97;;;4.63;;
14121;SDS011;7139;48.114;11.442;2023-09-18T08:05:49;4.90;;;4.03;;
14121;SDS011;7139;48.114;11.442;2023-09-18T08:08:16;5.70;;;3.70;;
14121;SDS011;7139;48.114;11.442;2023-09-18T08:10:42;4.43;;;3.57;;
14121;SDS011;7139;48.114;11.442;2023-09-18T08:13:10;6.37;;;3.90;;
14121;SDS011;7139;48.114;11.442;2023-09-18T08:15:38;4.17;;;3.70;;
14121;SDS011;7139;48.114;11.442;2023-09-18T08:18:04;4.90;;;3.80;;
14121;SDS011;7139;48.114;11.442;2023-09-18T08:20:31;5.47;;;3.50;;
14121;SDS011;7139;48.114;11.442;2023-09-18T08:22:59;5.70;;;3.77;;
14121;SDS011;7139;48.114;11.442;2023-09-18T08:25:26;8.63;;;4.13;;
14121;SDS011;7139;48.114;11.442;2023-09-18T08:27:53;4.60;;;3.90;;
14121;SDS011;7139;48.114;11.442;2023-09-18T08:30:21;6.00;;;4.33;;
14121;SDS011;7139;48.114;11.442;2023-09-18T08:32:48;5.07;;;4.00;;
14121;SDS011;7139;48.114;11.442;2023-09-18T08:35:15;5.73;;;3.83;;
14121;SDS011;7139;48.114;11.442;2023-09-18T08:37:42;5.57;;;3.80;;
14121;SDS011;7139;48.114;11.442;2023-09-18T08:40:09;4.87;;;3.80;;
14121;SDS011;7139;48.114;11.442;2023-09-18T08:42:39;6.77;;;3.87;;
14121;SDS011;7139;48.114;11.442;2023-09-18T08:45:09;6.20;;;3.90;;
14121;SDS011;7139;48.114;11.442;2023-09-18T08:47:42;6.87;;;4.00;;
14121;SDS011;7139;48.114;11.442;2023-09-18T08:50:09;8.90;;;4.17;;
14121;SDS011;7139;48.114;11.442;2023-09-18T08:52:36;4.17;;;3.77;;
14121;SDS011;7139;48.114;11.442;2023-09-18T08:55:04;5.10;;;4.20;;
14121;SDS011;7139;48.114;11.442;2023-09-18T08:57:31;6.80;;;4.40;;
14121;SDS011;7139;48.114;11.442;2023-09-18T09:00:00;5.67;;;4.23;;
14121;SDS011;7139;48.114;11.442;2023-09-18T09:02:34;6.27;;;4.07;;
14121;SDS011;7139;48.114;11.442;2023-09-18T09:05:03;6.67;;;4.23;;
14121;SDS011;7139;48.114;11.442;2023-09-18T09:07:31;5.90;;;3.73;;
14121;SDS011;7139;48.114;11.442;2023-09-18T09:09:57;4.73;;;3.70;;
14121;SDS011;7139;48.114;11.442;2023-09-18T09:15:13;7.17;;;4.10;;
14121;SDS011;7139;48.114;11.442;2023-09-18T09:17:41;6.40;;;3.50;;
14121;SDS011;7139;48.114;11.442;2023-09-18T09:20:11;5.70;;;3.90;;
14121;SDS011;7139;48.114;11.442;2023-09-18T09:22:39;4.30;;;3.90;;
14121;SDS011;7139;48.114;11.442;2023-09-18T09:25:21;6.40;;;3.93;;
14121;SDS011;7139;48.114;11.442;2023-09-18T09:27:49;7.27;;;3.77;;
14121;SDS011;7139;48.114;11.442;2023-09-18T09:30:18;6.63;;;4.20;;
14121;SDS011;7139;48.114;11.442;2023-09-18T09:32:50;8.77;;;4.13;;
14121;SDS011;7139;48.114;11.442;2023-09-18T09:35:22;5.07;;;3.80;;
14121;SDS011;7139;48.114;11.442;2023-09-18T09:37:53;5.27;;;3.67;;
14121;SDS011;7139;48.114;11.442;2023-09-18T09:40:22;7.17;;;3.77;;
14121;SDS011;7139;48.114;11.442;2023-09-18T09:42:51;7.63;;;4.07;;
14121;SDS011;7139;48.114;11.442;2023-09-18T09:45:25;6.37;;;3.67;;
14121;SDS011;7139;48.114;11.442;2023-09-18T09:47:53;5.60;;;3.80;;
14121;SDS011;7139;48.114;11.442;2023-09-18T09:50:20;6.43;;;3.73;;
14121;SDS011;7139;48.114;11.442;2023-09-18T09:52:51;8.37;;;3.83;;
14121;SDS011;7139;48.114;11.442;2023-09-18T09:55:20;8.77;;;4.23;;
14121;SDS011;7139;48.114;11.442;2023-09-18T09:57:49;8.13;;;3.80;;
14121;SDS011;7139;48.114;11.442;2023-09-18T10:00:18;5.73;;;3.57;;
14121;SDS011;7139;48.114;11.442;2023-09-18T10:02:52;7.03;;;3.43;;
14121;SDS011;7139;48.114;11.442;2023-09-18T10:05:23;6.17;;;3.20;;
14121;SDS011;7139;48.114;11.442;2023-09-18T10:07:53;6.43;;;3.10;;
14121;SDS011;7139;48.114;11.442;2023-09-18T10:10:23;7.63;;;3.43;;
14121;SDS011;7139;48.114;11.442;2023-09-18T10:12:51;9.90;;;4.10;;
14121;SDS011;7139;48.114;11.442;2023-09-18T10:15:20;8.50;;;3.40;;
14121;SDS011;7139;48.114;11.442;2023-09-18T10:17:48;5.40;;;3.30;;
14121;SDS011;7139;48.114;11.442;2023-09-18T10:20:21;5.63;;;3.70;;
14121;SDS011;7139;48.114;11.442;2023-09-18T10:22:54;8.27;;;3.50;;
14121;SDS011;7139;48.114;11.442;2023-09-18T10:25:23;7.90;;;4.03;;
14121;SDS011;7139;48.114;11.442;2023-09-18T10:27:53;6.13;;;3.80;;
14121;SDS011;7139;48.114;11.442;2023-09-18T10:30:26;6.37;;;3.90;;
14121;SDS011;7139;48.114;11.442;2023-09-18T10:32:54;10.93;;;3.47;;
14121;SDS011;7139;48.114;11.442;2023-09-18T10:35:22;7.80;;;3.60;;
14121;SDS011;7139;48.114;11.442;2023-09-18T10:37:49;7.43;;;3.73;;
14121;SDS011;7139;48.114;11.442;2023-09-18T10:40:20;7.60;;;3.53;;
14121;SDS011;7139;48.114;11.442;2023-09-18T10:42:48;7.20;;;3.53;;
14121;SDS011;7139;48.114;11.442;2023-09-18T10:45:18;10.67;;;3.90;;
14121;SDS011;7139;48.114;11.442;2023-09-18T10:47:45;7.17;;;3.90;;
14121;SDS011;7139;48.114;11.442;2023-09-18T10:50:21;10.90;;;3.90;;
14121;SDS011;7139;48.114;11.442;2023-09-18T10:52:49;8.67;;;3.90;;
14121;SDS011;7139;48.114;11.442;2023-09-18T10:55:16;6.90;;;4.27;;
14121;SDS011;7139;48.114;11.442;2023-09-18T10:57:51;7.73;;;4.27;;
14121;SDS011;7139;48.114;11.442;2023-09-18T11:00:18;9.23;;;4.33;;
14121;SDS011;7139;48.114;11.442;2023-09-18T11:02:50;9.53;;;4.43;;
14121;SDS011;7139;48.114;11.442;2023-09-18T11:05:30;11.60;;;4.73;;
14121;SDS011;7139;48.114;11.442;2023-09-18T11:10:59;11.77;;;4.40;;
14121;SDS011;7139;48.114;11.442;2023-09-18T11:13:34;11.07;;;4.67;;
14121;SDS011;7139;48.114;11.442;2023-09-18T11:16:02;7.07;;;4.20;;
14121;SDS011;7139;48.114;11.442;2023-09-18T11:18:45;11.40;;;5.00;;
14121;SDS011;7139;48.114;11.442;2023-09-18T11:21:15;7.13;;;4.93;;
14121;SDS011;7139;48.114;11.442;2023-09-18T11:23:43;8.70;;;5.37;;
14121;SDS011;7139;48.114;11.442;2023-09-18T11:26:10;8.13;;;4.40;;
14121;SDS011;7139;48.114;11.442;2023-09-18T11:28:39;6.67;;;3.87;;
14121;SDS011;7139;48.114;11.442;2023-09-18T11:31:08;6.73;;;3.70;;
14121;SDS011;7139;48.114;11.442;2023-09-18T11:33:37;8.57;;;3.13;;
14121;SDS011;7139;48.114;11.442;2023-09-18T11:36:06;6.57;;;3.50;;
14121;SDS011;7139;48.114;11.442;2023-09-18T11:38:34;8.00;;;3.10;;
14121;SDS011;7139;48.114;11.442;2023-09-18T11:41:14;6.50;;;2.60;;
14121;SDS011;7139;48.114;11.442;2023-09-18T11:43:47;6.37;;;2.60;;
14121;SDS011;7139;48.114;11.442;2023-09-18T11:46:17;8.00;;;2.50;;
14121;SDS011;7139;48.114;11.442;2023-09-18T11:48:46;4.63;;;2.40;;
14121;SDS011;7139;48.114;11.442;2023-09-18T11:51:20;5.53;;;2.77;;
14121;SDS011;7139;48.114;11.442;2023-09-18T11:53:48;3.77;;;2.40;;
14121;SDS011;7139;48.114;11.442;2023-09-18T11:56:19;5.60;;;2.70;;
14121;SDS011;7139;48.114;11.442;2023-09-18T11:58:48;4.90;;;2.60;;
14121;SDS011;7139;48.114;11.442;2023-09-18T12:01:17;5.93;;;2.40;;
14121;SDS011;7139;48.114;11.442;2023-09-18T12:03:44;4.87;;;2.63;;
14121;SDS011;7139;48.114;11.442;2023-09-18T12:06:13;5.00;;;2.50;;
14121;SDS011;7139;48.114;11.442;2023-09-18T12:08:40;4.80;;;2.20;;
14121;SDS011;7139;48.114;11.442;2023-09-18T12:11:08;6.77;;;2.40;;
14121;SDS011;7139;48.114;11.442;2023-09-18T12:13:34;4.17;;;2.17;;
14121;SDS011;7139;48.114;11.442;2023-09-18T12:16:03;4.93;;;2.63;;
14121;SDS011;7139;48.114;11.442;2023-09-18T12:18:31;3.77;;;2.33;;
14121;SDS011;7139;48.114;11.442;2023-09-18T12:20:59;5.07;;;2.50;;
14121;SDS011;7139;48.114;11.442;2023-09-18T12:23:35;2.80;;;2.40;;
14121;SDS011;7139;48.114;11.442;2023-09-18T12:26:03;4.60;;;2.70;;
14121;SDS011;7139;48.114;11.442;2023-09-18T12:28:32;3.20;;;2.40;;
14121;SDS011;7139;48.114;11.442;2023-09-18T12:30:59;3.80;;;2.07;;
14121;SDS011;7139;48.114;11.442;2023-09-18T12:33:33;4.33;;;2.20;;
14121;SDS011;7139;48.114;11.442;2023-09-18T12:36:01;4.27;;;2.10;;
14121;SDS011;7139;48.114;11.442;2023-09-18T12:38:29;3.57;;;2.10;;
14121;SDS011;7139;48.114;11.442;2023-09-18T12:40:57;3.63;;;2.13;;
14121;SDS011;7139;48.114;11.442;2023-09-18T12:43:31;2.83;;;1.80;;
14121;SDS011;7139;48.114;11.442;2023-09-18T12:46:04;3.53;;;1.93;;
14121;SDS011;7139;48.114;11.442;2023-09-18T12:48:32;4.60;;;1.77;;
14121;SDS011;7139;48.114;11.442;2023-09-18T12:51:03;3.47;;;1.97;;
14121;SDS011;7139;48.114;11.442;2023-09-18T12:53:30;4.33;;;1.90;;
14121;SDS011;7139;48.114;11.442;2023-09-18T12:56:07;4.33;;;1.40;;
14121;SDS011;7139;48.114;11.442;2023-09-18T12:58:35;3.47;;;1.60;;
14121;SDS011;7139;48.114;11.442;2023-09-18T13:01:05;2.40;;;1.70;;
14121;SDS011;7139;48.114;11.442;2023-09-18T13:03:42;2.17;;;1.53;;
14121;SDS011;7139;48.114;11.442;2023-09-18T13:06:10;2.50;;;1.50;;
14121;SDS011;7139;48.114;11.442;2023-09-18T13:08:38;2.30;;;2.00;;
14121;SDS011;7139;48.114;11.442;2023-09-18T13:11:05;3.20;;;1.90;;
14121;SDS011;7139;48.114;11.442;2023-09-18T13:13:32;3.00;;;1.80;;
14121;SDS011;7139;48.114;11.442;2023-09-18T13:15:59;2.77;;;1.80;;
14121;SDS011;7139;48.114;11.442;2023-09-18T13:18:30;2.30;;;1.70;;
14121;SDS011;7139;48.114;11.442;2023-09-18T13:20:58;3.60;;;2.00;;
14121;SDS011;7139;48.114;11.442;2023-09-18T13:23:28;3.00;;;1.93;;
14121;SDS011;7139;48.114;11.442;2023-09-18T13:25:59;3.33;;;1.80;;
14121;SDS011;7139;48.114;11.442;2023-09-18T13:28:26;3.03;;;2.03;;
14121;SDS011;7139;48.114;11.442;2023-09-18T13:30:56;3.17;;;1.80;;
14121;SDS011;7139;48.114;11.442;2023-09-18T13:33:23;2.60;;;1.60;;
14121;SDS011;7139;48.114;11.442;2023-09-18T13:35:51;2.63;;;1.60;;
14121;SDS011;7139;48.114;11.442;2023-09-18T13:38:22;4.03;;;2.00;;
14121;SDS011;7139;48.114;11.442;2023-09-18T13:40:49;3.60;;;1.90;;
14121;SDS011;7139;48.114;11.442;2023-09-18T13:43:16;4.20;;;1.67;;
14121;SDS011;7139;48.114;11.442;2023-09-18T13:45:44;5.27;;;1.77;;
14121;SDS011;7139;48.114;11.442;2023-09-18T13:48:12;4.20;;;1.80;;
14121;SDS011;7139;48.114;11.442;2023-09-18T13:50:40;2.80;;;1.57;;
14121;SDS011;7139;48.114;11.442;2023-09-18T13:53:07;2.20;;;1.70;;
14121;SDS011;7139;48.114;11.442;2023-09-18T13:55:35;4.70;;;1.77;;
14121;SDS011;7139;48.114;11.442;2023-09-18T13:58:05;3.33;;;1.60;;
14121;SDS011;7139;48.114;11.442;2023-09-18T14:00:32;1.90;;;1.70;;
14121;SDS011;7139;48.114;11.442;2023-09-18T14:02:58;4.33;;;2.07;;
14121;SDS011;7139;48.114;11.442;2023-09-18T14:05:25;3.63;;;2.23;;
14121;SDS011;7139;48.114;11.442;2023-09-18T14:07:54;11.17;;;3.03;;
14121;SDS011;7139;48.114;11.442;2023-09-18T14:10:24;9.87;;;2.80;;
14121;SDS011;7139;48.114;11.442;2023-09-18T14:12:53;4.20;;;1.80;;
14121;SDS011;7139;48.114;11.442;2023-09-18T14:15:20;4.93;;;2.03;;
14121;SDS011;7139;48.114;11.442;2023-09-18T14:17:47;9.63;;;3.33;;
14121;SDS011;7139;48.114;11.442;2023-09-18T14:20:14;16.03;;;3.60;;
14121;SDS011;7139;48.114;11.442;2023-09-18T14:22:43;12.57;;;3.40;;
14121;SDS011;7139;48.114;11.442;2023-09-18T14:25:10;16.53;;;3.30;;
14121;SDS011;7139;48.114;11.442;2023-09-18T14:27:37;11.73;;;2.63;;
14121;SDS011;7139;48.114;11.442;2023-09-18T14:30:06;3.40;;;2.00;;
14121;SDS011;7139;48.114;11.442;2023-09-18T14:32:33;5.63;;;1.93;;
14121;SDS011;7139;48.114;11.442;2023-09-18T14:35:01;5.37;;;2.23;;
14121;SDS011;7139;48.114;11.442;2023-09-18T14:37:30;8.97;;;2.93;;
14121;SDS011;7139;48.114;11.442;2023-09-18T14:39:57;8.60;;;2.67;;
14121;SDS011;7139;48.114;11.442;2023-09-18T14:42:23;6.17;;;2.30;;
14121;SDS011;7139;48.114;11.442;2023-09-18T14:44:50;4.73;;;2.40;;
14121;SDS011;7139;48.114;11.442;2023-09-18T14:47:18;9.03;;;2.60;;
14121;SDS011;7139;48.114;11.442;2023-09-18T14:49:45;7.33;;;2.40;;
14121;SDS011;7139;48.114;11.442;2023-09-18T14:52:12;7.00;;;2.43;;
14121;SDS011;7139;48.114;11.442;2023-09-18T14:54:40;4.53;;;1.83;;
14121;SDS011;7139;48.114;11.442;2023-09-18T14:57:06;4.87;;;2.03;;
14121;SDS011;7139;48.114;11.442;2023-09-18T14:59:33;5.20;;;2.10;;
14121;SDS011;7139;48.114;11.442;2023-09-18T15:02:00;3.10;;;1.90;;
14121;SDS011;7139;48.114;11.442;2023-09-18T15:04:29;3.70;;;2.07;;
14121;SDS011;7139;48.114;11.442;2023-09-18T15:06:56;2.37;;;1.60;;
14121;SDS011;7139;48.114;11.442;2023-09-18T15:09:22;3.60;;;1.63;;
14121;SDS011;7139;48.114;11.442;2023-09-18T15:11:49;3.23;;;1.80;;
14121;SDS011;7139;48.114;11.442;2023-09-18T15:14:16;1.50;;;1.03;;
14121;SDS011;7139;48.114;11.442;2023-09-18T15:16:43;1.67;;;1.57;;
14121;SDS011;7139;48.114;11.442;2023-09-18T15:19:10;1.43;;;1.30;;
14121;SDS011;7139;48.114;11.442;2023-09-18T15:21:40;3.10;;;1.33;;
14121;SDS011;7139;48.114;11.442;2023-09-18T15:24:07;3.13;;;1.37;;
14121;SDS011;7139;48.114;11.442;2023-09-18T15:26:34;2.70;;;1.60;;